Time;durP1;ratioP1;P1;durP2;ratioP2;P2;SDS_P1;SDS_P2;PMS_P1;PMS_P2;Temp;Humidity;BMP_temperature;BMP_pressure;BME280_temperature;BME280_humidity;BME280_pressure;Samples;Min_cycle;Max_cycle;Signal;HPM_P1;HPM_P2
2021/11/13 00:00:39;;;;;;;6.85;5.90;;;8.90;99.90;;;;;;4944089;28;20222;-69
2021/11/13 00:03:06;;;;;;;6.50;5.90;;;8.90;99.90;;;;;;4950239;28;20260;-68
2021/11/13 00:05:33;;;;;;;6.28;5.65;;;8.80;99.90;;;;;;4967036;28;20221;-68
2021/11/13 00:08:02;;;;;;;6.28;5.68;;;8.80;99.90;;;;;;4957627;28;20232;-68
2021/11/13 00:10:31;;;;;;;6.90;6.20;;;8.80;99.90;;;;;;4971129;28;20315;-68
2021/11/13 00:13:01;;;;;;;9.15;6.68;;;8.80;99.90;;;;;;4967274;28;20703;-67
2021/11/13 00:15:29;;;;;;;6.88;6.20;;;8.80;99.90;;;;;;4974076;28;20225;-68
2021/11/13 00:17:57;;;;;;;6.68;6.07;;;8.80;99.90;;;;;;4971168;28;20240;-70
2021/11/13 00:20:26;;;;;;;6.43;5.68;;;8.80;99.90;;;;;;4971611;28;20232;-68
2021/11/13 00:22:53;;;;;;;6.63;6.00;;;8.80;99.90;;;;;;4963477;28;20243;-68
2021/11/13 00:25:20;;;;;;;6.53;5.88;;;8.80;99.90;;;;;;4969311;28;20222;-69
2021/11/13 00:27:49;;;;;;;7.63;6.80;;;8.80;99.90;;;;;;4967466;28;20228;-68
2021/11/13 00:30:17;;;;;;;6.65;6.05;;;8.80;99.90;;;;;;4971152;28;20225;-68
2021/11/13 00:32:44;;;;;;;6.25;5.65;;;8.80;99.90;;;;;;4971314;28;20741;-68
2021/11/13 00:35:13;;;;;;;6.40;5.80;;;8.80;99.90;;;;;;4969902;28;20224;-68
2021/11/13 00:37:41;;;;;;;5.80;5.30;;;8.80;99.90;;;;;;4970552;28;20228;-69
2021/11/13 00:40:10;;;;;;;6.57;5.75;;;8.80;99.90;;;;;;4968553;28;20217;-69
2021/11/13 00:42:39;;;;;;;6.97;6.30;;;8.80;99.90;;;;;;4972724;28;20259;-68
2021/11/13 00:45:09;;;;;;;7.05;6.35;;;8.80;99.90;;;;;;4969096;28;20228;-68
2021/11/13 00:47:36;;;;;;;6.03;5.47;;;8.80;99.90;;;;;;4973180;28;20237;-69
2021/11/13 00:50:06;;;;;;;7.47;5.97;;;8.80;99.90;;;;;;4977060;28;20914;-68
2021/11/13 00:52:33;;;;;;;6.18;5.13;;;8.70;99.90;;;;;;4957807;28;21204;-68
2021/11/13 00:55:00;;;;;;;6.60;5.65;;;8.80;99.90;;;;;;4956661;28;20260;-68
2021/11/13 00:57:28;;;;;;;6.07;5.35;;;8.80;99.90;;;;;;4976588;28;20240;-69
2021/11/13 00:59:55;;;;;;;5.25;4.75;;;8.80;99.90;;;;;;4975575;28;20221;-69
2021/11/13 01:02:23;;;;;;;5.78;5.18;;;8.80;99.90;;;;;;4973227;28;20717;-68
2021/11/13 01:04:50;;;;;;;8.25;5.53;;;8.80;99.90;;;;;;4977705;28;20613;-70
2021/11/13 01:07:18;;;;;;;6.32;5.72;;;8.80;99.90;;;;;;4972764;28;20235;-69
2021/11/13 01:09:45;;;;;;;6.55;5.90;;;8.80;99.90;;;;;;4974926;28;20213;-69
2021/11/13 01:12:12;;;;;;;5.85;5.35;;;8.80;99.90;;;;;;4968331;28;20225;-69
2021/11/13 01:14:41;;;;;;;6.97;6.18;;;8.80;99.90;;;;;;4976658;28;20237;-69
2021/11/13 01:17:09;;;;;;;7.93;5.78;;;8.90;99.90;;;;;;4973029;28;20222;-68
2021/11/13 01:19:38;;;;;;;6.00;5.47;;;8.90;99.90;;;;;;4972765;28;20260;-68
2021/11/13 01:22:06;;;;;;;6.00;5.45;;;8.90;99.90;;;;;;4971917;28;20224;-68
2021/11/13 01:24:33;;;;;;;6.53;5.88;;;9.00;99.90;;;;;;4975103;28;20715;-69
2021/11/13 01:27:01;;;;;;;7.00;6.07;;;9.00;99.90;;;;;;4970393;28;20233;-69
2021/11/13 01:29:28;;;;;;;7.15;6.18;;;9.00;99.90;;;;;;4973966;28;20221;-68
2021/11/13 01:31:55;;;;;;;6.10;5.50;;;9.00;99.90;;;;;;4972084;28;20225;-69
2021/11/13 01:34:40;;;;;;;5.80;5.20;;;9.00;99.90;;;;;;4972288;28;20259;-69
2021/11/13 01:37:07;;;;;;;6.28;5.68;;;9.10;99.90;;;;;;4965240;28;20225;-69
2021/11/13 01:39:35;;;;;;;6.22;5.63;;;9.10;99.90;;;;;;4978340;28;20233;-68
2021/11/13 01:42:03;;;;;;;5.72;5.22;;;9.10;99.90;;;;;;4972080;28;20595;-68
2021/11/13 01:44:31;;;;;;;6.47;5.88;;;9.10;99.90;;;;;;4970851;28;20248;-68
2021/11/13 01:46:58;;;;;;;7.18;6.45;;;9.10;99.90;;;;;;4970518;28;20236;-68
2021/11/13 01:49:26;;;;;;;7.00;6.30;;;9.00;99.90;;;;;;4972738;28;20575;-69
2021/11/13 01:51:54;;;;;;;6.97;6.32;;;9.00;99.90;;;;;;4968919;28;20228;-69
2021/11/13 01:54:22;;;;;;;6.97;6.28;;;8.90;99.90;;;;;;4973225;28;20221;-68
2021/11/13 01:56:51;;;;;;;6.47;5.88;;;8.90;99.90;;;;;;4970642;28;20240;-70
2021/11/13 01:59:21;;;;;;;7.10;5.72;;;8.80;99.90;;;;;;4974994;28;20734;-69
2021/11/13 02:01:49;;;;;;;6.22;5.18;;;8.80;99.90;;;;;;4969959;28;20312;-68
2021/11/13 02:04:17;;;;;;;5.50;5.00;;;8.80;99.90;;;;;;4964774;28;20255;-68
2021/11/13 02:06:44;;;;;;;5.90;5.30;;;8.80;99.90;;;;;;4969177;28;20229;-68
2021/11/13 02:09:12;;;;;;;6.57;5.55;;;8.90;99.90;;;;;;4972163;28;20611;-69
2021/11/13 02:11:39;;;;;;;6.15;5.55;;;8.90;99.90;;;;;;4967895;28;20229;-68
2021/11/13 02:14:06;;;;;;;5.97;5.13;;;8.80;99.90;;;;;;4972470;28;20576;-73
2021/11/13 02:16:34;;;;;;;8.40;6.10;;;8.80;99.90;;;;;;4970734;28;20225;-68
2021/11/13 02:19:01;;;;;;;6.45;5.72;;;8.80;99.90;;;;;;4970674;28;20240;-69
2021/11/13 02:21:30;;;;;;;6.15;5.55;;;8.70;99.90;;;;;;4964953;28;20249;-70
2021/11/13 02:23:57;;;;;;;5.72;5.22;;;8.70;99.90;;;;;;4969151;28;20237;-69
2021/11/13 02:26:25;;;;;;;5.88;5.32;;;8.70;99.90;;;;;;4968726;28;20221;-69
2021/11/13 02:28:55;;;;;;;5.32;4.85;;;8.70;99.90;;;;;;4976897;28;20249;-69
2021/11/13 02:31:33;;;;;;;7.10;5.50;;;8.70;99.90;;;;;;4962628;28;20711;-68
2021/11/13 02:34:01;;;;;;;6.75;5.50;;;8.70;99.90;;;;;;4971037;28;20217;-70
2021/11/13 02:36:29;;;;;;;6.03;5.43;;;8.70;99.90;;;;;;4967653;28;20603;-68
2021/11/13 02:38:58;;;;;;;5.30;4.90;;;8.80;99.90;;;;;;4971904;28;20248;-68
2021/11/13 02:41:27;;;;;;;6.18;5.60;;;8.80;99.90;;;;;;4971180;28;20224;-69
2021/11/13 02:43:55;;;;;;;5.80;5.30;;;8.80;99.90;;;;;;4967627;28;20228;-67
2021/11/13 02:46:22;;;;;;;6.28;5.60;;;8.80;99.90;;;;;;4967443;28;20581;-68
2021/11/13 02:48:50;;;;;;;9.27;6.00;;;8.80;99.90;;;;;;4972383;28;20230;-68
2021/11/13 02:51:18;;;;;;;5.10;4.60;;;8.90;99.90;;;;;;4967257;28;20252;-68
2021/11/13 02:53:49;;;;;;;5.38;4.88;;;8.80;99.90;;;;;;4971610;28;20228;-69
2021/11/13 02:56:16;;;;;;;6.00;5.40;;;8.90;99.90;;;;;;4969526;28;20226;-67
2021/11/13 02:58:43;;;;;;;6.03;5.43;;;9.00;99.90;;;;;;4965799;28;20237;-68
2021/11/13 03:01:13;;;;;;;6.10;5.50;;;8.90;99.90;;;;;;4967112;28;20222;-69
2021/11/13 03:03:40;;;;;;;7.15;6.55;;;8.90;99.90;;;;;;4972700;28;20240;-68
2021/11/13 03:06:12;;;;;;;6.00;5.40;;;8.80;99.90;;;;;;4970918;28;20234;-68
2021/11/13 03:08:40;;;;;;;6.28;5.68;;;8.70;99.90;;;;;;4969869;28;20553;-68
2021/11/13 03:11:11;;;;;;;6.25;5.40;;;8.70;99.90;;;;;;4968515;28;20229;-68
2021/11/13 03:13:40;;;;;;;5.93;5.18;;;8.70;99.90;;;;;;4973049;28;20233;-69
2021/11/13 03:16:08;;;;;;;8.68;5.43;;;8.80;99.90;;;;;;4972024;28;20221;-67
2021/11/13 03:18:36;;;;;;;5.53;4.70;;;8.80;99.90;;;;;;5008174;22;20227;-79
2021/11/13 03:21:06;;;;;;;5.63;5.03;;;8.90;99.90;;;;;;4993980;28;20228;-79
2021/11/13 03:23:33;;;;;;;6.57;5.97;;;8.90;99.90;;;;;;4994764;28;20250;-77
2021/11/13 03:26:03;;;;;;;7.45;6.18;;;8.90;99.90;;;;;;4996716;28;20239;-78
2021/11/13 03:28:37;;;;;;;6.57;5.97;;;8.90;99.90;;;;;;4995526;28;20233;-78
2021/11/13 03:31:05;;;;;;;5.85;5.28;;;8.80;99.90;;;;;;4977322;28;20220;-78
2021/11/13 03:33:35;;;;;;;5.78;5.15;;;8.70;99.90;;;;;;4987569;28;20225;-78
2021/11/13 03:36:03;;;;;;;7.32;5.57;;;8.70;99.90;;;;;;4973792;28;20221;-79
2021/11/13 03:38:30;;;;;;;6.15;5.22;;;8.60;99.90;;;;;;4974417;28;20227;-79
2021/11/13 03:40:57;;;;;;;6.28;5.68;;;8.60;99.90;;;;;;4974722;28;20232;-79
2021/11/13 03:43:24;;;;;;;7.40;6.25;;;8.60;99.90;;;;;;4975527;28;20224;-78
2021/11/13 03:45:53;;;;;;;6.72;6.13;;;8.60;99.90;;;;;;4931389;28;20286;-79
2021/11/13 03:48:21;;;;;;;6.55;5.95;;;8.60;99.90;;;;;;4976994;28;20224;-80
2021/11/13 03:50:49;;;;;;;6.75;5.88;;;8.60;99.90;;;;;;4973001;28;20324;-79
2021/11/13 03:53:16;;;;;;;6.22;5.70;;;8.60;99.90;;;;;;4974034;28;20243;-80
2021/11/13 03:55:43;;;;;;;6.95;5.63;;;8.60;99.90;;;;;;4982828;28;20239;-79
2021/11/13 03:58:10;;;;;;;6.15;5.55;;;8.70;99.90;;;;;;4985060;28;20231;-79
2021/11/13 04:00:38;;;;;;;6.07;5.47;;;8.70;99.90;;;;;;4972549;28;20240;-81
2021/11/13 04:03:07;;;;;;;6.05;5.45;;;8.70;99.90;;;;;;4967287;28;20224;-78
2021/11/13 04:05:34;;;;;;;6.20;5.60;;;8.80;99.90;;;;;;4989250;28;20224;-79
2021/11/13 04:08:03;;;;;;;6.35;5.75;;;8.80;99.90;;;;;;5005870;28;20228;-83
2021/11/13 04:10:30;;;;;;;6.43;5.82;;;8.70;99.90;;;;;;5003309;28;20231;-80
2021/11/13 04:12:57;;;;;;;5.72;5.22;;;8.60;99.90;;;;;;4997907;28;20231;-79
2021/11/13 04:15:25;;;;;;;6.55;5.95;;;8.60;99.90;;;;;;4968934;28;20227;-79
2021/11/13 04:17:52;;;;;;;5.88;4.95;;;8.70;99.90;;;;;;4994368;28;20227;-79
2021/11/13 04:20:22;;;;;;;5.72;5.22;;;8.70;99.90;;;;;;4991141;28;20356;-79
2021/11/13 04:22:50;;;;;;;5.72;5.22;;;8.70;99.90;;;;;;4991591;28;20730;-79
2021/11/13 04:25:19;;;;;;;6.45;5.28;;;8.70;99.90;;;;;;4993738;28;20228;-81
2021/11/13 04:27:46;;;;;;;6.10;5.60;;;8.70;99.90;;;;;;4995085;28;20224;-80
2021/11/13 04:30:15;;;;;;;7.93;6.57;;;8.70;99.90;;;;;;4989525;28;20227;-78
2021/11/13 04:32:43;;;;;;;5.40;4.90;;;8.70;99.90;;;;;;4992485;28;20583;-79
2021/11/13 04:35:18;;;;;;;6.75;5.43;;;8.70;99.90;;;;;;4996278;28;20577;-81
2021/11/13 04:37:49;;;;;;;6.50;5.90;;;8.70;99.90;;;;;;4992910;28;20211;-81
2021/11/13 04:40:17;;;;;;;5.68;5.18;;;8.70;99.90;;;;;;4993789;28;20283;-79
2021/11/13 04:42:44;;;;;;;5.82;5.32;;;8.80;99.90;;;;;;4994653;28;20228;-81
2021/11/13 04:45:12;;;;;;;5.43;4.85;;;8.80;99.90;;;;;;4995869;28;20322;-81
2021/11/13 04:47:39;;;;;;;6.38;5.78;;;8.80;99.90;;;;;;4992721;28;20530;-81
2021/11/13 04:50:09;;;;;;;5.97;5.47;;;8.70;99.90;;;;;;4997430;28;20232;-77
2021/11/13 04:52:36;;;;;;;5.68;5.18;;;8.70;99.90;;;;;;4991718;28;20958;-78
2021/11/13 04:55:05;;;;;;;5.85;5.32;;;8.70;99.90;;;;;;4995206;28;20228;-77
2021/11/13 04:57:33;;;;;;;6.72;6.10;;;8.70;99.90;;;;;;4977797;28;20224;-79
2021/11/13 05:00:00;;;;;;;6.32;5.68;;;8.70;99.90;;;;;;4992660;28;20695;-79
2021/11/13 05:02:27;;;;;;;6.18;5.60;;;8.70;99.90;;;;;;4991912;28;20251;-79
2021/11/13 05:04:55;;;;;;;6.90;5.30;;;8.70;99.90;;;;;;4991968;28;20758;-81
2021/11/13 05:07:23;;;;;;;5.90;5.40;;;8.70;99.90;;;;;;4992057;28;20256;-78
2021/11/13 05:09:51;;;;;;;5.70;5.20;;;8.70;99.90;;;;;;4984569;28;20229;-78
2021/11/13 05:12:19;;;;;;;6.03;5.40;;;8.70;99.90;;;;;;4984126;28;20228;-78
2021/11/13 05:14:46;;;;;;;5.40;4.90;;;8.70;99.90;;;;;;4994327;28;20971;-80
2021/11/13 05:17:14;;;;;;;5.65;5.15;;;8.70;99.90;;;;;;4993551;28;20231;-79
2021/11/13 05:19:42;;;;;;;5.93;5.43;;;8.70;99.90;;;;;;4992776;28;20787;-80
2021/11/13 05:22:09;;;;;;;5.78;5.28;;;8.70;99.90;;;;;;4991320;28;20236;-79
2021/11/13 05:24:36;;;;;;;5.47;4.90;;;8.70;99.90;;;;;;4992860;28;20239;-80
2021/11/13 05:27:05;;;;;;;6.28;5.68;;;8.70;99.90;;;;;;4992022;28;20232;-79
2021/11/13 05:29:33;;;;;;;6.47;5.57;;;8.70;99.90;;;;;;4977990;28;20225;-79
2021/11/13 05:32:00;;;;;;;6.10;5.60;;;8.70;99.90;;;;;;4974637;28;20229;-82
2021/11/13 05:34:27;;;;;;;5.90;5.30;;;8.70;99.90;;;;;;4975722;28;22704;-79
2021/11/13 05:36:54;;;;;;;6.63;5.50;;;8.70;99.90;;;;;;4975720;28;20225;-80
2021/11/13 05:39:22;;;;;;;5.90;5.35;;;8.70;99.90;;;;;;4975785;28;20232;-79
2021/11/13 05:41:49;;;;;;;8.13;6.03;;;8.70;99.90;;;;;;4974773;28;20596;-80
2021/11/13 05:44:16;;;;;;;7.72;5.97;;;8.70;99.90;;;;;;4976013;28;20824;-78
2021/11/13 05:46:45;;;;;;;6.40;5.75;;;8.70;99.90;;;;;;4984992;28;20303;-78
2021/11/13 05:49:12;;;;;;;6.95;5.85;;;8.70;99.90;;;;;;4975944;28;20236;-79
2021/11/13 05:51:39;;;;;;;6.32;5.72;;;8.70;99.90;;;;;;4976396;28;20232;-79
2021/11/13 05:54:07;;;;;;;5.47;4.97;;;8.70;99.90;;;;;;4979599;28;20232;-77
2021/11/13 05:56:34;;;;;;;5.68;5.18;;;8.70;99.90;;;;;;4980246;28;20611;-78
2021/11/13 05:59:01;;;;;;;6.07;5.47;;;8.70;99.90;;;;;;4994747;28;20223;-78
2021/11/13 06:01:29;;;;;;;7.70;5.40;;;8.70;99.90;;;;;;5005819;28;20224;-78
2021/11/13 06:03:57;;;;;;;6.63;6.10;;;8.70;99.90;;;;;;5006115;28;20224;-81
2021/11/13 06:06:24;;;;;;;6.72;6.00;;;8.70;99.90;;;;;;5005440;28;20236;-79
2021/11/13 06:08:51;;;;;;;6.28;5.68;;;8.70;99.90;;;;;;5009865;28;20339;-81
2021/11/13 06:11:19;;;;;;;10.50;6.43;;;8.70;99.90;;;;;;5004769;28;20216;-80
2021/11/13 06:13:46;;;;;;;7.57;6.38;;;8.60;99.90;;;;;;5001976;28;20220;-78
2021/11/13 06:16:13;;;;;;;6.82;5.85;;;8.50;99.90;;;;;;5009840;28;20246;-80
2021/11/13 06:18:40;;;;;;;6.07;5.47;;;8.50;99.90;;;;;;5007603;28;20239;-78
2021/11/13 06:21:09;;;;;;;6.63;6.03;;;8.50;99.90;;;;;;5008982;28;20228;-80
2021/11/13 06:23:38;;;;;;;5.18;4.75;;;8.50;99.90;;;;;;5008264;28;20233;-79
2021/11/13 06:26:06;;;;;;;5.80;4.78;;;8.60;99.90;;;;;;5006710;28;20220;-78
2021/11/13 06:28:34;;;;;;;5.63;5.03;;;8.60;99.90;;;;;;5010808;28;20223;-81
2021/11/13 06:31:01;;;;;;;5.70;5.20;;;8.60;99.90;;;;;;5006670;28;20231;-80
2021/11/13 06:33:28;;;;;;;5.53;5.03;;;8.60;99.90;;;;;;5010300;28;20230;-79
2021/11/13 06:35:55;;;;;;;6.03;5.43;;;8.60;99.90;;;;;;5008189;28;20220;-78
2021/11/13 06:38:24;;;;;;;5.85;5.22;;;8.60;99.90;;;;;;4985966;28;20219;-80
2021/11/13 06:40:51;;;;;;;6.43;5.07;;;8.60;99.90;;;;;;5016557;28;20234;-78
2021/11/13 06:43:19;;;;;;;5.38;4.88;;;8.60;99.90;;;;;;5005978;28;20215;-79
2021/11/13 06:45:46;;;;;;;5.90;5.32;;;8.70;99.90;;;;;;5006617;28;20236;-80
2021/11/13 06:48:13;;;;;;;6.22;5.22;;;8.70;99.90;;;;;;5010140;28;20216;-79
2021/11/13 06:50:41;;;;;;;6.30;5.70;;;8.80;99.90;;;;;;5007672;28;20224;-79
2021/11/13 06:53:09;;;;;;;7.53;6.75;;;8.80;99.90;;;;;;5008779;28;20224;-79
2021/11/13 06:55:38;;;;;;;7.45;5.65;;;8.70;99.90;;;;;;5008567;28;20224;-78
2021/11/13 06:58:05;;;;;;;6.63;6.03;;;8.70;99.90;;;;;;5007129;28;20698;-79
2021/11/13 07:00:33;;;;;;;6.90;6.10;;;8.60;99.90;;;;;;5012024;28;20230;-79
2021/11/13 07:03:02;;;;;;;6.53;5.72;;;8.60;99.90;;;;;;5006527;28;20228;-79
2021/11/13 07:05:29;;;;;;;6.07;4.90;;;8.60;99.90;;;;;;5008430;28;20336;-79
2021/11/13 07:07:58;;;;;;;5.57;5.00;;;8.60;99.90;;;;;;5005285;28;21322;-79
2021/11/13 07:10:27;;;;;;;6.72;5.22;;;8.70;99.90;;;;;;5009857;28;20992;-81
2021/11/13 07:12:57;;;;;;;5.93;5.03;;;8.80;99.90;;;;;;5009122;28;20235;-80
2021/11/13 07:15:31;;;;;;;7.15;6.10;;;8.80;99.90;;;;;;5003426;28;20885;-79
2021/11/13 07:17:59;;;;;;;7.00;6.30;;;8.80;99.90;;;;;;5004971;28;20232;-81
2021/11/13 07:20:26;;;;;;;7.32;6.53;;;8.80;99.90;;;;;;5013130;28;20223;-79
2021/11/13 07:22:55;;;;;;;6.95;5.82;;;8.90;99.90;;;;;;5006981;28;20216;-82
2021/11/13 07:25:25;;;;;;;6.55;5.95;;;8.80;99.90;;;;;;5008161;28;20278;-84
2021/11/13 07:27:56;;;;;;;7.80;7.00;;;8.80;99.90;;;;;;5002906;28;20234;-78
2021/11/13 07:30:25;;;;;;;7.63;6.93;;;8.70;99.90;;;;;;5002614;28;20297;-81
2021/11/13 07:32:52;;;;;;;7.47;6.35;;;8.70;99.90;;;;;;5004977;28;20282;-81
2021/11/13 07:35:19;;;;;;;7.38;6.60;;;8.80;99.90;;;;;;5013281;28;20309;-78
2021/11/13 07:37:46;;;;;;;8.48;7.28;;;8.80;99.90;;;;;;4998517;28;20227;-78
2021/11/13 07:40:14;;;;;;;8.00;7.20;;;8.90;99.90;;;;;;5001836;28;20228;-78
2021/11/13 07:42:41;;;;;;;7.32;6.63;;;8.90;99.90;;;;;;4998239;28;20232;-80
2021/11/13 07:45:09;;;;;;;6.75;6.15;;;8.90;99.90;;;;;;4987946;28;20224;-79
2021/11/13 07:47:41;;;;;;;8.40;7.00;;;8.90;99.90;;;;;;5001104;28;20224;-80
2021/11/13 07:50:10;;;;;;;6.90;6.20;;;9.00;99.90;;;;;;5001444;28;20227;-79
2021/11/13 07:52:37;;;;;;;7.82;6.53;;;9.00;99.90;;;;;;5001128;28;20227;-78
2021/11/13 07:55:05;;;;;;;7.53;6.75;;;8.90;99.90;;;;;;5008584;28;20223;-80
2021/11/13 07:57:32;;;;;;;7.50;6.80;;;8.90;99.90;;;;;;4999550;28;20341;-79
2021/11/13 08:00:00;;;;;;;6.93;6.22;;;8.90;99.90;;;;;;5005379;28;20231;-80
2021/11/13 08:02:27;;;;;;;6.90;6.00;;;8.90;99.90;;;;;;5001534;28;20238;-79
2021/11/13 08:04:56;;;;;;;7.20;6.32;;;9.00;99.90;;;;;;5005574;28;20220;-80
2021/11/13 08:07:23;;;;;;;6.50;5.90;;;9.00;99.90;;;;;;5001109;28;20231;-80
2021/11/13 08:09:51;;;;;;;6.68;6.07;;;9.10;99.90;;;;;;4984780;28;20211;-80
2021/11/13 08:12:18;;;;;;;7.07;6.03;;;9.20;99.90;;;;;;4977152;28;20694;-80
2021/11/13 08:14:45;;;;;;;6.10;5.60;;;9.20;99.90;;;;;;4995958;28;21259;-79
2021/11/13 08:17:12;;;;;;;7.85;6.47;;;9.20;99.90;;;;;;5003640;28;20746;-80
2021/11/13 08:19:39;;;;;;;9.88;8.88;;;9.20;99.90;;;;;;5005512;28;20246;-79
2021/11/13 08:22:08;;;;;;;8.60;6.63;;;9.30;99.90;;;;;;4999622;28;20224;-83
2021/11/13 08:24:36;;;;;;;7.57;6.78;;;9.30;99.90;;;;;;5008980;28;20732;-78
2021/11/13 08:27:04;;;;;;;8.52;7.60;;;9.30;99.90;;;;;;5006335;28;20244;-81
2021/11/13 08:29:31;;;;;;;7.32;6.65;;;9.20;99.90;;;;;;5000981;28;20247;-80
2021/11/13 08:31:59;;;;;;;7.57;6.80;;;9.20;99.90;;;;;;5007074;28;20224;-79
2021/11/13 08:34:26;;;;;;;7.85;7.13;;;9.20;99.90;;;;;;4998587;28;20231;-80
2021/11/13 08:36:53;;;;;;;7.38;6.68;;;9.10;99.90;;;;;;5000392;28;20242;-79
2021/11/13 08:39:22;;;;;;;13.52;7.55;;;9.10;99.90;;;;;;5002300;28;20223;-79
2021/11/13 08:41:50;;;;;;;13.00;7.75;;;9.00;99.90;;;;;;4997647;28;20212;-80
2021/11/13 08:44:17;;;;;;;8.50;7.18;;;9.00;99.90;;;;;;5008885;28;20223;-80
2021/11/13 08:46:44;;;;;;;8.30;7.45;;;8.90;99.90;;;;;;4991911;28;20232;-79
2021/11/13 08:49:11;;;;;;;7.57;6.47;;;8.90;99.90;;;;;;5006741;28;20227;-80
2021/11/13 08:51:38;;;;;;;7.95;7.15;;;9.00;99.90;;;;;;5000116;28;20220;-80
2021/11/13 08:54:05;;;;;;;8.27;7.47;;;9.00;99.90;;;;;;5004072;28;20227;-80
2021/11/13 08:56:34;;;;;;;8.60;7.80;;;9.00;99.90;;;;;;4999164;28;20216;-79
2021/11/13 08:59:02;;;;;;;7.72;6.93;;;9.10;99.90;;;;;;5000088;28;20274;-79
2021/11/13 09:01:31;;;;;;;7.30;6.60;;;9.10;99.90;;;;;;4999007;28;20223;-80
2021/11/13 09:03:59;;;;;;;7.30;6.65;;;9.20;99.90;;;;;;5000724;28;20903;-79
2021/11/13 09:06:30;;;;;;;9.23;7.38;;;9.20;99.90;;;;;;5003964;28;20231;-79
2021/11/13 09:09:00;;;;;;;8.77;7.68;;;9.20;99.90;;;;;;5007099;28;20239;-80
2021/11/13 09:11:31;;;;;;;8.38;7.50;;;9.20;99.90;;;;;;5011362;28;20238;-80
2021/11/13 09:14:03;;;;;;;9.93;8.15;;;9.20;99.90;;;;;;5008695;28;20216;-80
2021/11/13 09:16:32;;;;;;;8.70;7.63;;;9.20;99.90;;;;;;5011917;28;20232;-80
2021/11/13 09:19:00;;;;;;;8.02;7.15;;;9.30;99.90;;;;;;5004409;28;20586;-78
2021/11/13 09:21:29;;;;;;;8.20;7.40;;;9.30;99.90;;;;;;5002635;28;22866;-81
2021/11/13 09:23:56;;;;;;;9.05;7.55;;;9.30;99.90;;;;;;5009617;28;20737;-80
2021/11/13 09:26:24;;;;;;;8.73;7.10;;;9.40;99.90;;;;;;5006657;28;20228;-79
2021/11/13 09:28:51;;;;;;;9.25;7.35;;;9.40;99.90;;;;;;5006790;28;20230;-80
2021/11/13 09:31:20;;;;;;;8.23;7.38;;;9.30;99.90;;;;;;5003564;28;20757;-81
2021/11/13 09:33:47;;;;;;;8.60;7.78;;;9.30;99.90;;;;;;5013822;28;20220;-79
2021/11/13 09:36:14;;;;;;;7.53;6.75;;;9.30;99.90;;;;;;5008630;28;20220;-79
2021/11/13 09:38:44;;;;;;;8.02;7.05;;;9.30;99.90;;;;;;5007393;28;20233;-82
2021/11/13 09:41:15;;;;;;;8.60;7.70;;;9.30;99.90;;;;;;5006793;28;20298;-78
2021/11/13 09:43:42;;;;;;;7.18;6.47;;;9.20;99.90;;;;;;5008807;28;20224;-79
2021/11/13 09:46:12;;;;;;;7.43;6.72;;;9.30;99.90;;;;;;5006325;28;20228;-78
2021/11/13 09:48:42;;;;;;;8.23;7.32;;;9.30;99.90;;;;;;5002991;28;20248;-78
2021/11/13 09:51:10;;;;;;;7.68;6.88;;;9.40;99.90;;;;;;5005101;28;20243;-78
2021/11/13 09:53:38;;;;;;;8.93;7.22;;;9.40;99.90;;;;;;5006526;28;20239;-77
2021/11/13 09:56:05;;;;;;;7.88;7.00;;;9.50;99.90;;;;;;5009747;28;20224;-79
2021/11/13 09:58:32;;;;;;;7.88;7.07;;;9.50;99.90;;;;;;5000205;28;21100;-84
2021/11/13 10:01:00;;;;;;;7.78;7.07;;;9.50;99.90;;;;;;4984594;28;20233;-79
2021/11/13 10:03:27;;;;;;;9.05;8.10;;;9.50;99.90;;;;;;4994384;28;20232;-80
2021/11/13 10:05:58;;;;;;;9.30;7.53;;;9.50;99.90;;;;;;4996845;28;20228;-80
2021/11/13 10:08:25;;;;;;;9.00;7.55;;;9.60;99.90;;;;;;4993970;28;20220;-86
2021/11/13 10:10:57;;;;;;;9.88;7.93;;;9.60;99.90;;;;;;4977224;28;20228;-82
2021/11/13 10:13:32;;;;;;;9.50;8.02;;;9.60;99.90;;;;;;5005253;28;20224;-83
2021/11/13 10:16:03;;;;;;;10.25;8.43;;;9.60;99.90;;;;;;5005189;28;20294;-82
2021/11/13 10:18:32;;;;;;;10.23;7.78;;;9.60;99.90;;;;;;4995584;28;20228;-82
2021/11/13 10:21:10;;;;;;;8.25;7.35;;;9.60;99.90;;;;;;4998811;28;20224;-85
2021/11/13 10:23:43;;;;;;;13.23;10.70;;;9.70;99.90;;;;;;4996470;28;20227;-85
2021/11/13 10:26:15;;;;;;;10.57;9.43;;;9.70;99.90;;;;;;4998443;28;20687;-84
2021/11/13 10:28:50;;;;;;;9.38;8.43;;;9.70;99.90;;;;;;4995764;28;20228;-82
2021/11/13 10:31:21;;;;;;;9.40;8.40;;;9.80;99.90;;;;;;5002538;28;20595;-82
2021/11/13 10:33:49;;;;;;;9.40;8.40;;;9.80;99.90;;;;;;4998708;28;20225;-83
2021/11/13 10:36:22;;;;;;;8.77;7.95;;;9.80;99.90;;;;;;5007490;28;20239;-85
2021/11/13 10:38:57;;;;;;;8.93;8.02;;;9.80;99.90;;;;;;4995347;28;20227;-89
2021/11/13 10:41:25;;;;;;;9.20;7.25;;;9.80;99.90;;;;;;4997537;28;20228;-85
2021/11/13 10:43:52;;;;;;;8.80;7.90;;;9.90;99.90;;;;;;5006909;28;20229;-83
2021/11/13 10:46:21;;;;;;;8.80;7.35;;;9.90;99.90;;;;;;5004288;28;20216;-82
2021/11/13 10:48:50;;;;;;;8.00;7.20;;;9.80;99.90;;;;;;4998159;28;20227;-83
2021/11/13 10:51:22;;;;;;;8.00;7.15;;;9.80;99.90;;;;;;4996611;28;20228;-85
2021/11/13 10:53:50;;;;;;;8.07;7.28;;;9.80;99.90;;;;;;4999155;28;20235;-84
2021/11/13 10:56:18;;;;;;;8.90;8.00;;;9.80;99.90;;;;;;5001849;28;20220;-84
2021/11/13 10:58:53;;;;;;;9.27;7.18;;;9.80;99.90;;;;;;4972496;28;20488;-87
2021/11/13 11:01:36;;;;;;;7.95;7.13;;;9.80;99.90;;;;;;4999848;28;20235;-81
2021/11/13 11:04:09;;;;;;;7.78;7.05;;;9.90;99.90;;;;;;5009780;28;20229;-83
2021/11/13 11:06:41;;;;;;;7.55;6.85;;;9.90;99.90;;;;;;4999486;28;20212;-84
2021/11/13 11:09:23;;;;;;;7.80;7.00;;;9.90;99.90;;;;;;5000640;28;20252;-80
2021/11/13 11:11:52;;;;;;;8.05;7.25;;;9.90;99.90;;;;;;5001153;28;20595;-84
2021/11/13 11:14:21;;;;;;;9.00;6.95;;;10.00;99.90;;;;;;4977451;28;20289;-83
2021/11/13 11:16:52;;;;;;;9.50;8.27;;;10.00;99.90;;;;;;4997034;28;20227;-82
2021/11/13 11:19:21;;;;;;;8.98;8.07;;;9.90;99.90;;;;;;4996367;28;20230;-83
2021/11/13 11:21:59;;;;;;;8.95;8.00;;;9.80;99.90;;;;;;4997160;28;20239;-86
2021/11/13 11:24:34;;;;;;;8.27;7.47;;;9.70;99.90;;;;;;5018860;28;20227;-81
2021/11/13 11:27:06;;;;;;;10.70;8.75;;;9.70;99.90;;;;;;5014614;28;20258;-82
2021/11/13 11:29:35;;;;;;;9.43;7.43;;;9.50;99.90;;;;;;4981755;28;20226;-82
2021/11/13 11:32:06;;;;;;;8.50;7.70;;;9.40;99.90;;;;;;5016053;28;20224;-83
2021/11/13 11:34:35;;;;;;;7.53;6.90;;;9.30;99.90;;;;;;5018556;28;20223;-83
2021/11/13 11:37:11;;;;;;;8.60;7.72;;;9.30;99.90;;;;;;5002680;28;20235;-82
2021/11/13 11:39:39;;;;;;;8.10;7.30;;;9.30;99.90;;;;;;5000714;28;20232;-82
2021/11/13 11:42:08;;;;;;;8.25;7.18;;;9.30;99.90;;;;;;4992882;28;20228;-85
2021/11/13 11:44:37;;;;;;;7.30;6.60;;;9.40;99.90;;;;;;4990551;28;20240;-84
2021/11/13 11:47:10;;;;;;;8.50;7.70;;;9.50;99.90;;;;;;4998216;28;20231;-85
2021/11/13 11:49:40;;;;;;;10.70;9.30;;;9.60;99.90;;;;;;4992908;28;20232;-83
2021/11/13 11:52:09;;;;;;;8.40;7.32;;;9.70;99.90;;;;;;5003420;28;20229;-84
2021/11/13 11:54:37;;;;;;;8.82;7.93;;;9.70;99.90;;;;;;5003199;28;20224;-86
2021/11/13 11:57:04;;;;;;;7.72;6.95;;;9.70;99.90;;;;;;4976362;28;20224;-89
2021/11/13 11:59:36;;;;;;;7.97;7.18;;;9.70;99.90;;;;;;5002966;28;20243;-88
2021/11/13 12:02:09;;;;;;;7.55;6.63;;;9.70;99.90;;;;;;4999204;28;20237;-83
2021/11/13 12:04:36;;;;;;;7.63;6.82;;;9.80;99.90;;;;;;4996466;28;20228;-86
2021/11/13 12:07:04;;;;;;;8.75;6.93;;;9.80;99.90;;;;;;4993560;28;20613;-85
2021/11/13 12:09:32;;;;;;;8.07;6.53;;;9.80;99.90;;;;;;4997377;28;20241;-88
2021/11/13 12:12:14;;;;;;;7.03;6.32;;;9.80;99.90;;;;;;4997457;28;20232;-85
2021/11/13 12:14:42;;;;;;;8.00;6.55;;;9.80;99.90;;;;;;5008574;28;20229;-88
2021/11/13 12:17:30;;;;;;;6.65;6.05;;;9.80;99.90;;;;;;5021578;28;20283;-88
2021/11/13 12:20:33;;;;;;;6.93;6.30;;;9.80;99.90;;;;;;5001848;28;20718;-86
2021/11/13 12:23:14;;;;;;;7.15;6.40;;;9.90;99.90;;;;;;5015656;28;20314;-88
2021/11/13 12:26:04;;;;;;;7.53;6.80;;;10.00;99.90;;;;;;5020476;28;20244;-83
2021/11/13 12:28:32;;;;;;;7.30;6.60;;;10.00;99.90;;;;;;5017701;28;20238;-85
2021/11/13 12:31:11;;;;;;;8.40;6.80;;;10.10;99.90;;;;;;5027102;28;20243;-85
2021/11/13 12:33:54;;;;;;;7.40;6.45;;;10.10;99.90;;;;;;5020753;28;20216;-83
2021/11/13 12:36:36;;;;;;;8.48;7.13;;;10.10;99.90;;;;;;5016224;28;20227;-82
2021/11/13 12:39:11;;;;;;;8.52;7.60;;;10.10;99.90;;;;;;5014434;28;20251;-82
2021/11/13 12:41:47;;;;;;;7.20;6.57;;;10.10;99.90;;;;;;5026074;28;20682;-86
2021/11/13 12:44:23;;;;;;;8.15;6.90;;;10.10;99.90;;;;;;5021547;28;20234;-83
2021/11/13 12:46:52;;;;;;;7.13;6.38;;;10.00;99.90;;;;;;5021507;28;20698;-86
2021/11/13 12:49:47;;;;;;;7.60;6.90;;;10.00;99.90;;;;;;5013387;28;20224;-85
2021/11/13 12:52:43;;;;;;;9.43;7.35;;;10.00;99.90;;;;;;5019949;28;20215;-85
2021/11/13 12:55:14;;;;;;;8.07;7.28;;;10.00;99.90;;;;;;5007426;28;20228;-84
2021/11/13 12:57:44;;;;;;;7.53;6.78;;;9.90;99.90;;;;;;5008768;28;20230;-85
2021/11/13 13:00:18;;;;;;;7.63;6.30;;;10.00;99.90;;;;;;5002192;28;20221;-87
2021/11/13 13:02:45;;;;;;;7.63;6.93;;;10.00;99.90;;;;;;5004102;28;20709;-83
2021/11/13 13:05:15;;;;;;;8.43;7.55;;;10.00;99.90;;;;;;5029649;28;20220;-86